createdAt,value
2018-03-26T00:01:16.085Z,6.10
2018-03-26T00:03:43.634Z,6.10
2018-03-26T00:06:11.217Z,6.00
2018-03-26T00:08:38.689Z,6.00
2018-03-26T00:11:06.143Z,5.90
2018-03-26T00:13:33.616Z,5.90
2018-03-26T00:16:01.071Z,5.90
2018-03-26T00:18:28.546Z,5.90
2018-03-26T00:20:55.995Z,6.00
2018-03-26T00:23:23.469Z,5.90
2018-03-26T00:25:50.935Z,5.90
2018-03-26T00:28:18.401Z,5.90
2018-03-26T00:30:45.871Z,5.80
2018-03-26T00:33:13.327Z,5.80
2018-03-26T00:35:40.803Z,5.80
2018-03-26T00:38:08.267Z,5.80
2018-03-26T00:40:35.736Z,5.80
2018-03-26T00:43:03.982Z,5.80
2018-03-26T00:45:31.461Z,5.80
2018-03-26T00:47:58.931Z,5.80
2018-03-26T00:50:26.396Z,5.80
2018-03-26T00:52:53.851Z,5.80
2018-03-26T00:55:21.323Z,5.80
2018-03-26T00:57:48.787Z,5.80
2018-03-26T01:00:16.260Z,5.90
2018-03-26T01:02:43.728Z,5.90
2018-03-26T01:05:11.191Z,5.90
2018-03-26T01:07:38.658Z,5.90
2018-03-26T01:10:06.131Z,5.90
2018-03-26T01:12:34.375Z,6.00
2018-03-26T01:15:01.868Z,6.00
2018-03-26T01:17:29.339Z,6.00
2018-03-26T01:19:56.795Z,6.00
2018-03-26T01:22:24.261Z,6.00
2018-03-26T01:24:51.728Z,6.00
2018-03-26T01:27:19.262Z,6.00
2018-03-26T01:29:46.672Z,6.00
2018-03-26T01:32:14.148Z,6.00
2018-03-26T01:34:41.615Z,6.00
2018-03-26T01:37:09.091Z,6.00
2018-03-26T01:39:37.319Z,6.00
2018-03-26T01:42:04.782Z,6.00
2018-03-26T01:44:32.243Z,6.00
2018-03-26T01:47:00.498Z,6.00
2018-03-26T01:49:27.959Z,6.00
2018-03-26T01:51:55.434Z,6.00
2018-03-26T01:54:22.907Z,6.00
2018-03-26T01:56:50.367Z,6.00
2018-03-26T01:59:17.836Z,6.00
2018-03-26T02:01:45.291Z,6.00
2018-03-26T02:04:12.763Z,6.00
2018-03-26T02:06:40.249Z,6.00
2018-03-26T02:09:07.715Z,6.10
2018-03-26T02:11:35.183Z,6.10
2018-03-26T02:14:02.677Z,6.10
2018-03-26T02:16:30.128Z,6.20
2018-03-26T02:18:57.591Z,6.20
2018-03-26T02:21:25.070Z,6.20
2018-03-26T02:23:52.534Z,6.20
2018-03-26T02:26:19.988Z,6.20
2018-03-26T02:28:47.482Z,6.20
2018-03-26T02:31:14.943Z,6.20
2018-03-26T02:33:42.407Z,6.20
2018-03-26T02:36:09.882Z,6.30
2018-03-26T02:38:38.109Z,6.30
2018-03-26T02:41:05.594Z,6.20
2018-03-26T02:43:33.059Z,6.30
2018-03-26T02:46:00.542Z,6.30
2018-03-26T02:48:28.018Z,6.30
2018-03-26T02:50:55.488Z,6.30
2018-03-26T02:53:22.963Z,6.30
2018-03-26T02:55:50.429Z,6.30
2018-03-26T02:58:17.889Z,6.40
2018-03-26T03:00:45.366Z,6.40
2018-03-26T03:03:12.819Z,6.40
2018-03-26T03:05:40.305Z,6.40
2018-03-26T03:08:08.537Z,6.40
2018-03-26T03:10:36.062Z,6.40
2018-03-26T03:13:03.474Z,6.40
2018-03-26T03:15:30.949Z,6.40
2018-03-26T03:17:58.411Z,6.40
2018-03-26T03:20:25.897Z,6.40
2018-03-26T03:22:53.361Z,6.40
2018-03-26T03:25:20.824Z,6.40
2018-03-26T03:27:48.283Z,6.40
2018-03-26T03:30:15.743Z,6.40
2018-03-26T03:32:43.204Z,6.50
2018-03-26T03:35:10.655Z,6.50
2018-03-26T03:37:38.132Z,6.50
2018-03-26T03:40:05.596Z,6.50
2018-03-26T03:42:33.837Z,6.60
2018-03-26T03:45:01.302Z,6.50
2018-03-26T03:47:28.767Z,6.60
2018-03-26T03:49:56.234Z,6.60
2018-03-26T03:52:23.737Z,6.70
2018-03-26T03:54:51.208Z,6.70
2018-03-26T03:57:18.688Z,6.70
2018-03-26T03:59:46.148Z,6.70
2018-03-26T04:02:13.616Z,6.70
2018-03-26T04:04:41.067Z,6.80
2018-03-26T04:07:08.576Z,6.80
2018-03-26T04:09:36.032Z,6.80
2018-03-26T04:12:03.488Z,6.80
2018-03-26T04:14:30.985Z,6.80
2018-03-26T04:16:58.439Z,6.80
2018-03-26T04:19:25.916Z,6.90
2018-03-26T04:21:53.367Z,6.90
2018-03-26T04:24:20.836Z,6.90
2018-03-26T04:26:48.293Z,6.90
2018-03-26T04:29:15.763Z,6.90
2018-03-26T04:31:43.232Z,6.90
2018-03-26T04:34:10.738Z,7.00
2018-03-26T04:36:38.175Z,7.00
2018-03-26T04:39:05.651Z,7.00
2018-03-26T04:41:33.103Z,7.00
2018-03-26T04:44:00.568Z,7.00
2018-03-26T04:46:28.028Z,7.00
2018-03-26T04:48:55.504Z,7.00
2018-03-26T04:51:22.964Z,7.00
2018-03-26T04:53:50.448Z,7.10
2018-03-26T04:56:17.907Z,7.10
2018-03-26T04:58:45.387Z,7.10
2018-03-26T05:01:12.847Z,7.10
2018-03-26T05:03:40.303Z,7.10
2018-03-26T05:06:07.783Z,7.10
2018-03-26T05:08:35.239Z,7.10
2018-03-26T05:11:02.715Z,7.10
2018-03-26T05:13:30.176Z,7.10
2018-03-26T05:15:57.642Z,7.10
2018-03-26T05:18:25.865Z,7.20
2018-03-26T05:20:53.345Z,7.10
2018-03-26T05:23:20.807Z,7.20
2018-03-26T05:25:48.264Z,7.20
2018-03-26T05:28:15.731Z,7.20
2018-03-26T05:30:43.192Z,7.20
2018-03-26T05:33:10.647Z,7.20
2018-03-26T05:35:38.120Z,7.30
2018-03-26T05:38:05.584Z,7.30
2018-03-26T05:40:33.334Z,7.30
2018-03-26T05:43:00.767Z,7.30
2018-03-26T05:45:28.240Z,7.30
2018-03-26T05:47:55.700Z,7.30
2018-03-26T05:50:23.163Z,7.30
2018-03-26T05:52:50.626Z,7.30
2018-03-26T05:55:18.739Z,7.30
2018-03-26T05:57:46.220Z,7.30
2018-03-26T06:00:13.688Z,7.40
2018-03-26T06:02:41.147Z,7.40
2018-03-26T06:05:08.604Z,7.40
2018-03-26T06:07:36.079Z,7.40
2018-03-26T06:10:04.312Z,7.40
2018-03-26T06:12:32.360Z,7.40
2018-03-26T06:14:59.833Z,7.40
2018-03-26T06:17:27.299Z,7.40
2018-03-26T06:19:54.757Z,7.40
2018-03-26T06:22:22.228Z,7.40
2018-03-26T06:24:49.696Z,7.40
2018-03-26T06:27:17.168Z,7.50
2018-03-26T06:29:44.628Z,7.50
2018-03-26T06:32:12.111Z,7.50
2018-03-26T06:34:39.585Z,7.50
2018-03-26T06:37:21.957Z,7.50
2018-03-26T06:39:49.403Z,7.50
2018-03-26T06:42:16.867Z,7.60
2018-03-26T06:44:44.328Z,7.60
2018-03-26T06:47:11.798Z,7.60
2018-03-26T06:49:39.261Z,7.70
2018-03-26T06:52:06.747Z,7.70
2018-03-26T06:54:34.205Z,7.70
2018-03-26T06:57:01.721Z,7.70
2018-03-26T06:59:29.207Z,7.70
2018-03-26T07:01:56.676Z,7.80
2018-03-26T07:04:24.224Z,7.80
2018-03-26T07:06:51.683Z,7.80
2018-03-26T07:09:19.151Z,7.90
2018-03-26T07:11:46.636Z,7.90
2018-03-26T07:14:14.118Z,7.90
2018-03-26T07:16:41.586Z,8.00
2018-03-26T07:19:09.069Z,8.00
2018-03-26T07:21:36.538Z,8.00
2018-03-26T07:24:04.013Z,8.10
2018-03-26T07:26:31.468Z,8.10
2018-03-26T07:28:59.000Z,8.10
2018-03-26T07:31:26.418Z,8.10
2018-03-26T07:33:53.902Z,8.20
2018-03-26T07:36:21.365Z,8.20
2018-03-26T07:38:48.831Z,8.20
2018-03-26T07:41:16.326Z,8.30
2018-03-26T07:43:43.810Z,8.30
2018-03-26T07:46:11.265Z,8.30
2018-03-26T07:48:38.784Z,8.30
2018-03-26T07:51:06.269Z,8.40
2018-03-26T07:53:33.759Z,8.40
2018-03-26T07:56:01.244Z,8.50
2018-03-26T07:58:28.704Z,8.50
2018-03-26T08:00:56.220Z,8.50
2018-03-26T08:03:23.711Z,8.60
2018-03-26T08:05:51.180Z,8.70
2018-03-26T08:08:18.639Z,8.70
2018-03-26T08:10:46.141Z,8.70
2018-03-26T08:13:13.607Z,8.70
2018-03-26T08:15:41.100Z,8.70
2018-03-26T08:18:08.563Z,8.70
2018-03-26T08:20:36.044Z,8.80
2018-03-26T08:23:03.500Z,8.90
2018-03-26T08:25:31.752Z,9.00
2018-03-26T08:27:59.994Z,9.00
2018-03-26T08:30:27.464Z,9.00
2018-03-26T08:32:54.950Z,9.00
2018-03-26T08:35:22.424Z,9.10
2018-03-26T08:37:50.655Z,9.30
2018-03-26T08:40:18.132Z,9.20
2018-03-26T08:42:45.627Z,9.30
2018-03-26T08:45:13.298Z,9.30
2018-03-26T08:47:40.778Z,9.40
2018-03-26T08:50:08.407Z,9.50
2018-03-26T08:52:35.726Z,9.50
2018-03-26T08:55:03.192Z,9.50
2018-03-26T08:57:30.682Z,9.60
2018-03-26T08:59:58.143Z,9.70
2018-03-26T09:02:25.612Z,9.80
2018-03-26T09:04:53.071Z,9.90
2018-03-26T09:07:20.539Z,9.90
2018-03-26T09:09:48.023Z,10.00
2018-03-26T09:12:15.495Z,10.00
2018-03-26T09:14:42.966Z,10.10
2018-03-26T09:17:10.452Z,10.20
2018-03-26T09:19:37.915Z,10.30
2018-03-26T09:22:05.411Z,10.30
2018-03-26T09:24:32.879Z,10.50
2018-03-26T09:27:01.124Z,10.60
2018-03-26T09:29:28.591Z,10.60
2018-03-26T09:31:56.072Z,10.60
2018-03-26T09:34:23.556Z,10.70
2018-03-26T09:36:51.036Z,10.70
2018-03-26T09:39:18.507Z,10.70
2018-03-26T09:41:45.972Z,10.80
2018-03-26T09:44:13.450Z,10.80
2018-03-26T09:46:41.692Z,10.80
2018-03-26T09:49:09.160Z,10.80
2018-03-26T09:51:36.629Z,10.90
2018-03-26T09:54:04.101Z,10.90
2018-03-26T09:56:31.624Z,10.90
2018-03-26T09:58:59.195Z,11.00
2018-03-26T10:01:32.484Z,11.00
2018-03-26T10:03:59.959Z,11.00
2018-03-26T10:06:27.435Z,11.00
2018-03-26T10:08:54.919Z,11.00
2018-03-26T10:11:22.395Z,11.00
2018-03-26T10:13:50.635Z,11.10
2018-03-26T10:16:18.103Z,11.10
2018-03-26T10:18:45.588Z,11.00
2018-03-26T10:21:13.073Z,11.00
2018-03-26T10:23:40.553Z,11.00
2018-03-26T10:26:08.021Z,11.00
2018-03-26T10:28:35.505Z,11.00
2018-03-26T10:31:02.975Z,11.00
2018-03-26T10:33:30.440Z,11.10
2018-03-26T10:35:57.912Z,11.00
2018-03-26T10:38:25.405Z,11.00
2018-03-26T10:40:52.972Z,11.00
2018-03-26T10:43:20.458Z,11.10
2018-03-26T10:45:47.934Z,11.00
2018-03-26T10:48:15.399Z,11.10
2018-03-26T10:50:42.871Z,11.00
2018-03-26T10:53:10.336Z,11.10
2018-03-26T10:55:37.821Z,11.10
2018-03-26T10:58:05.322Z,11.20
2018-03-26T11:00:32.818Z,11.20
2018-03-26T11:03:00.272Z,11.20
2018-03-26T11:05:27.800Z,11.20
2018-03-26T11:07:55.256Z,11.20
2018-03-26T11:10:22.727Z,11.20
2018-03-26T11:12:50.957Z,11.20
2018-03-26T11:15:18.424Z,11.20
2018-03-26T11:17:45.911Z,11.20
2018-03-26T11:20:13.380Z,11.20
2018-03-26T11:22:41.619Z,11.20
2018-03-26T11:25:09.078Z,11.20
2018-03-26T11:27:36.556Z,11.30
2018-03-26T11:30:04.017Z,11.30
2018-03-26T11:32:31.709Z,11.30
2018-03-26T11:34:59.166Z,11.30
2018-03-26T11:37:26.648Z,11.30
2018-03-26T11:39:54.118Z,11.30
2018-03-26T11:42:21.604Z,11.30
2018-03-26T11:44:49.067Z,11.30
2018-03-26T11:47:16.545Z,11.30
2018-03-26T11:49:44.053Z,11.30
2018-03-26T11:52:11.497Z,11.30
2018-03-26T11:54:38.971Z,11.30
2018-03-26T11:57:06.583Z,11.30
2018-03-26T11:59:34.060Z,11.30
2018-03-26T12:02:01.527Z,11.30
2018-03-26T12:04:29.008Z,11.30
2018-03-26T12:06:56.491Z,11.30
2018-03-26T12:09:23.980Z,11.40
2018-03-26T12:11:51.448Z,11.30
2018-03-26T12:14:18.915Z,11.30
2018-03-26T12:16:47.307Z,11.30
2018-03-26T12:19:14.806Z,11.30
2018-03-26T12:21:42.275Z,11.30
2018-03-26T12:24:21.471Z,11.30
2018-03-26T12:26:49.713Z,11.20
2018-03-26T12:29:37.824Z,11.10
2018-03-26T12:32:05.287Z,11.10
2018-03-26T12:34:53.452Z,11.20
2018-03-26T12:37:20.924Z,11.10
2018-03-26T12:39:48.392Z,11.10
2018-03-26T12:42:15.868Z,11.10
2018-03-26T12:44:55.076Z,11.10
2018-03-26T12:47:22.557Z,11.00
2018-03-26T12:49:50.757Z,11.00
2018-03-26T12:52:29.928Z,11.00
2018-03-26T12:54:57.408Z,11.00
2018-03-26T12:57:37.405Z,11.00
2018-03-26T13:00:04.914Z,11.00
2018-03-26T13:02:32.383Z,11.00
2018-03-26T13:04:59.860Z,10.90
2018-03-26T13:07:27.378Z,10.90
2018-03-26T13:09:54.881Z,10.90
2018-03-26T13:12:22.356Z,10.90
2018-03-26T13:14:49.849Z,11.00
2018-03-26T13:17:17.336Z,11.00
2018-03-26T13:19:45.560Z,10.90
2018-03-26T13:22:13.090Z,10.90
2018-03-26T13:24:40.576Z,10.90
2018-03-26T13:27:08.063Z,10.90
2018-03-26T13:29:35.534Z,10.80
2018-03-26T13:32:03.768Z,10.80
2018-03-26T13:34:31.237Z,10.80
2018-03-26T13:36:58.725Z,10.80
2018-03-26T13:39:26.192Z,10.70
2018-03-26T13:41:53.714Z,10.70
2018-03-26T13:44:21.152Z,10.60
2018-03-26T13:46:48.627Z,10.60
2018-03-26T13:49:16.135Z,10.60
2018-03-26T13:51:43.678Z,10.60
2018-03-26T13:54:11.993Z,10.60
2018-03-26T13:56:39.480Z,10.60
2018-03-26T13:59:07.002Z,10.70
2018-03-26T14:01:34.480Z,10.70
2018-03-26T14:04:01.995Z,10.70
2018-03-26T14:06:29.492Z,10.70
2018-03-26T14:09:08.665Z,10.70
2018-03-26T14:11:48.771Z,10.80
2018-03-26T14:14:28.034Z,10.70
2018-03-26T14:17:07.227Z,10.80
2018-03-26T14:19:34.702Z,10.80
2018-03-26T14:22:02.176Z,10.70
2018-03-26T14:24:29.650Z,10.70
2018-03-26T14:26:57.883Z,10.60
2018-03-26T14:29:25.361Z,10.50
2018-03-26T14:31:52.832Z,10.60
2018-03-26T14:34:20.316Z,10.60
2018-03-26T14:36:47.783Z,10.60
2018-03-26T14:39:15.279Z,10.60
2018-03-26T14:41:42.748Z,10.60
2018-03-26T14:44:10.222Z,10.60
2018-03-26T14:46:38.455Z,10.50
2018-03-26T14:49:05.975Z,10.50
2018-03-26T14:51:33.463Z,10.50
2018-03-26T14:54:01.024Z,10.50
2018-03-26T14:56:28.506Z,10.50
2018-03-26T14:58:55.968Z,10.50
2018-03-26T15:01:23.515Z,10.50
2018-03-26T15:03:56.670Z,10.50
2018-03-26T15:06:24.222Z,10.50
2018-03-26T15:08:51.708Z,10.50
2018-03-26T15:11:19.197Z,10.60
2018-03-26T15:13:46.800Z,10.60
2018-03-26T15:16:14.321Z,10.60
2018-03-26T15:18:41.817Z,10.60
2018-03-26T15:21:09.293Z,10.60
2018-03-26T15:23:36.770Z,10.60
2018-03-26T15:26:04.270Z,10.60
2018-03-26T15:28:31.792Z,10.60
2018-03-26T15:30:59.281Z,10.70
2018-03-26T15:33:27.533Z,10.70
2018-03-26T15:35:55.017Z,10.70
2018-03-26T15:38:23.297Z,10.80
2018-03-26T15:40:50.776Z,10.80
2018-03-26T15:43:18.433Z,10.90
2018-03-26T15:45:45.915Z,10.90
2018-03-26T15:48:13.419Z,10.90
2018-03-26T15:50:41.668Z,11.00
2018-03-26T15:53:09.135Z,11.00
2018-03-26T15:55:36.615Z,11.00
2018-03-26T15:58:04.116Z,11.00
2018-03-26T16:00:31.580Z,11.00
2018-03-26T16:03:04.774Z,11.00
2018-03-26T16:05:32.256Z,10.90
2018-03-26T16:07:59.736Z,11.00
2018-03-26T16:10:28.008Z,11.00
2018-03-26T16:12:55.506Z,10.90
2018-03-26T16:15:22.972Z,10.90
2018-03-26T16:17:50.488Z,10.90
2018-03-26T16:20:18.735Z,10.90
2018-03-26T16:22:46.220Z,10.90
2018-03-26T16:25:13.739Z,10.90
2018-03-26T16:27:41.259Z,10.90
2018-03-26T16:30:08.833Z,10.90
2018-03-26T16:32:36.330Z,10.90
2018-03-26T16:35:03.893Z,10.90
2018-03-26T16:37:32.177Z,10.90
2018-03-26T16:39:59.659Z,10.90
2018-03-26T16:42:27.996Z,10.90
2018-03-26T16:44:55.473Z,10.90
2018-03-26T16:47:22.965Z,10.90
2018-03-26T16:49:50.463Z,10.90
2018-03-26T16:52:17.958Z,10.90
2018-03-26T16:54:45.426Z,10.90
2018-03-26T16:57:12.923Z,10.90
2018-03-26T16:59:40.421Z,10.90
2018-03-26T17:02:07.895Z,10.90
2018-03-26T17:04:35.377Z,10.90
2018-03-26T17:07:02.865Z,10.90
2018-03-26T17:09:30.350Z,10.80
2018-03-26T17:11:57.827Z,10.80
2018-03-26T17:14:25.332Z,10.80
2018-03-26T17:16:52.874Z,10.80
2018-03-26T17:19:20.344Z,10.80
2018-03-26T17:21:47.812Z,10.70
2018-03-26T17:24:15.321Z,10.80
2018-03-26T17:26:42.796Z,10.70
2018-03-26T17:29:10.274Z,10.70
2018-03-26T17:31:37.761Z,10.70
2018-03-26T17:34:05.227Z,10.70
2018-03-26T17:36:33.481Z,10.70
2018-03-26T17:39:00.961Z,10.70
2018-03-26T17:41:28.444Z,10.70
2018-03-26T17:43:55.944Z,10.70
2018-03-26T17:46:23.438Z,10.70
2018-03-26T17:48:50.992Z,10.70
2018-03-26T17:51:19.236Z,10.70
2018-03-26T17:53:46.724Z,10.60
2018-03-26T17:56:14.206Z,10.60
2018-03-26T17:58:41.679Z,10.60
2018-03-26T18:01:09.165Z,10.60
2018-03-26T18:03:36.663Z,10.60
2018-03-26T18:06:04.140Z,10.60
2018-03-26T18:08:31.626Z,10.50
2018-03-26T18:10:59.116Z,10.50
2018-03-26T18:13:26.606Z,10.50
2018-03-26T18:15:54.106Z,10.50
2018-03-26T18:18:21.571Z,10.50
2018-03-26T18:20:49.067Z,10.50
2018-03-26T18:23:16.552Z,10.40
2018-03-26T18:25:44.040Z,10.40
2018-03-26T18:28:11.524Z,10.40
2018-03-26T18:30:39.789Z,10.40
2018-03-26T18:33:07.273Z,10.40
2018-03-26T18:35:34.748Z,10.40
2018-03-26T18:38:02.254Z,10.40
2018-03-26T18:40:29.715Z,10.30
2018-03-26T18:42:57.192Z,10.30
2018-03-26T18:45:25.432Z,10.30
2018-03-26T18:47:52.908Z,10.30
2018-03-26T18:50:20.371Z,10.30
2018-03-26T18:52:47.860Z,10.30
2018-03-26T18:55:15.320Z,10.30
2018-03-26T18:57:42.812Z,10.30
2018-03-26T19:00:10.281Z,10.30
2018-03-26T19:02:37.755Z,10.20
2018-03-26T19:05:06.002Z,10.20
2018-03-26T19:07:33.476Z,10.20
2018-03-26T19:10:00.955Z,10.20
2018-03-26T19:12:28.444Z,10.20
2018-03-26T19:14:55.915Z,10.20
2018-03-26T19:17:23.384Z,10.20
2018-03-26T19:19:50.876Z,10.20
2018-03-26T19:22:19.110Z,10.10
2018-03-26T19:24:46.600Z,10.10
2018-03-26T19:27:14.081Z,10.10
2018-03-26T19:29:41.565Z,10.10
2018-03-26T19:32:09.031Z,10.00
2018-03-26T19:34:36.519Z,10.00
2018-03-26T19:37:03.989Z,10.00
2018-03-26T19:39:31.527Z,10.00
2018-03-26T19:41:58.942Z,10.00
2018-03-26T19:44:26.416Z,10.00
2018-03-26T19:46:53.872Z,9.90
2018-03-26T19:49:21.354Z,9.90
2018-03-26T19:51:48.831Z,9.90
2018-03-26T19:54:16.311Z,9.90
2018-03-26T19:56:43.775Z,9.90
2018-03-26T19:59:11.258Z,9.90
2018-03-26T20:01:38.731Z,9.90
2018-03-26T20:04:06.249Z,9.90
2018-03-26T20:06:33.717Z,9.90
2018-03-26T20:09:01.196Z,9.90
2018-03-26T20:11:28.676Z,9.80
2018-03-26T20:13:56.156Z,9.80
2018-03-26T20:16:24.408Z,9.80
2018-03-26T20:18:51.877Z,9.80
2018-03-26T20:21:19.352Z,9.80
2018-03-26T20:23:46.823Z,9.80
2018-03-26T20:26:14.315Z,9.80
2018-03-26T20:28:41.776Z,9.80
2018-03-26T20:31:09.254Z,9.80
2018-03-26T20:33:36.733Z,9.80
2018-03-26T20:36:05.001Z,9.80
2018-03-26T20:38:32.503Z,9.70
2018-03-26T20:40:59.969Z,9.70
2018-03-26T20:43:27.433Z,9.70
2018-03-26T20:45:54.908Z,9.70
2018-03-26T20:48:22.365Z,9.60
2018-03-26T20:50:49.839Z,9.60
2018-03-26T20:53:17.313Z,9.60
2018-03-26T20:55:45.539Z,9.50
2018-03-26T20:58:13.012Z,9.50
2018-03-26T21:00:40.480Z,9.50
2018-03-26T21:03:07.972Z,9.50
2018-03-26T21:05:35.449Z,9.50
2018-03-26T21:08:02.925Z,9.40
2018-03-26T21:10:30.394Z,9.40
2018-03-26T21:12:57.875Z,9.40
2018-03-26T21:15:25.336Z,9.40
2018-03-26T21:17:52.813Z,9.40
2018-03-26T21:20:21.053Z,9.30
2018-03-26T21:22:48.544Z,9.40
2018-03-26T21:25:16.004Z,9.30
2018-03-26T21:27:43.488Z,9.30
2018-03-26T21:30:10.950Z,9.30
2018-03-26T21:32:38.469Z,9.30
2018-03-26T21:35:06.687Z,9.30
2018-03-26T21:37:34.181Z,9.30
2018-03-26T21:40:01.686Z,9.20
2018-03-26T21:42:29.155Z,9.20
2018-03-26T21:44:56.639Z,9.20
2018-03-26T21:47:24.108Z,9.20
2018-03-26T21:49:51.590Z,9.20
2018-03-26T21:52:19.815Z,9.10
2018-03-26T21:54:47.288Z,9.10
2018-03-26T21:57:14.771Z,9.10
2018-03-26T21:59:42.268Z,9.10
2018-03-26T22:02:09.736Z,9.10
2018-03-26T22:04:37.214Z,9.10
2018-03-26T22:07:04.675Z,9.00
2018-03-26T22:09:32.164Z,9.00
2018-03-26T22:11:59.640Z,9.00
2018-03-26T22:14:27.104Z,9.00
2018-03-26T22:16:54.565Z,9.00
2018-03-26T22:19:22.040Z,9.00
2018-03-26T22:21:49.499Z,9.00
2018-03-26T22:24:16.974Z,8.90
2018-03-26T22:26:44.435Z,8.90
2018-03-26T22:29:11.903Z,8.90
2018-03-26T22:31:39.367Z,8.90
2018-03-26T22:34:06.832Z,8.90
2018-03-26T22:36:34.288Z,8.90
2018-03-26T22:39:01.752Z,8.90
2018-03-26T22:41:29.232Z,8.90
2018-03-26T22:43:56.732Z,8.90
2018-03-26T22:46:24.213Z,8.90
2018-03-26T22:48:51.672Z,8.90
2018-03-26T22:51:19.134Z,8.90
2018-03-26T22:53:46.593Z,8.90
2018-03-26T22:56:14.064Z,8.90
2018-03-26T22:58:41.548Z,8.90
2018-03-26T23:01:09.023Z,8.90
2018-03-26T23:03:36.486Z,8.90
2018-03-26T23:06:03.959Z,8.80
2018-03-26T23:08:31.432Z,8.80
2018-03-26T23:10:59.667Z,8.70
2018-03-26T23:13:27.139Z,8.80
2018-03-26T23:15:54.608Z,8.70
2018-03-26T23:18:22.080Z,8.70
2018-03-26T23:20:49.567Z,8.70
2018-03-26T23:23:17.032Z,8.70
2018-03-26T23:25:44.504Z,8.70
2018-03-26T23:28:11.981Z,8.70
2018-03-26T23:30:39.463Z,8.70
2018-03-26T23:33:07.716Z,8.70
2018-03-26T23:35:35.196Z,8.70
2018-03-26T23:38:02.665Z,8.70
2018-03-26T23:40:30.137Z,8.70
2018-03-26T23:42:57.603Z,8.70
2018-03-26T23:45:25.067Z,8.70
2018-03-26T23:47:52.531Z,8.60
2018-03-26T23:50:20.004Z,8.60
2018-03-26T23:52:47.460Z,8.60
2018-03-26T23:55:14.941Z,8.60
2018-03-26T23:57:43.175Z,8.60
